sensor_id;sensor_type;location;lat;lon;timestamp;pressure;altitude;pressure_sealevel;temperature;humidity
50484;BME280;36409;52.168;20.878;2023-02-03T00:00:06;100842.28;;;-0.33;81.69
50484;BME280;36409;52.168;20.878;2023-02-03T00:03:02;100834.55;;;-0.34;81.03
50484;BME280;36409;52.168;20.878;2023-02-03T00:05:31;100840.53;;;-0.34;81.43
50484;BME280;36409;52.168;20.878;2023-02-03T00:08:04;100832.79;;;-0.35;81.16
50484;BME280;36409;52.168;20.878;2023-02-03T00:10:34;100841.30;;;-0.36;80.75
50484;BME280;36409;52.168;20.878;2023-02-03T00:17:11;100844.43;;;-0.43;81.00
50484;BME280;36409;52.168;20.878;2023-02-03T00:19:42;100838.39;;;-0.45;80.94
50484;BME280;36409;52.168;20.878;2023-02-03T00:22:11;100841.77;;;-0.47;80.84
50484;BME280;36409;52.168;20.878;2023-02-03T00:24:41;100849.34;;;-0.50;81.70
50484;BME280;36409;52.168;20.878;2023-02-03T00:27:09;100840.58;;;-0.55;81.44
50484;BME280;36409;52.168;20.878;2023-02-03T00:29:39;100843.86;;;-0.59;80.83
50484;BME280;36409;52.168;20.878;2023-02-03T00:32:08;100849.63;;;-0.65;80.49
50484;BME280;36409;52.168;20.878;2023-02-03T00:34:38;100852.01;;;-0.69;80.85
50484;BME280;36409;52.168;20.878;2023-02-03T00:37:08;100859.57;;;-0.72;80.89
50484;BME280;36409;52.168;20.878;2023-02-03T00:39:38;100856.83;;;-0.77;80.48
50484;BME280;36409;52.168;20.878;2023-02-03T00:42:07;100855.84;;;-0.81;80.74
50484;BME280;36409;52.168;20.878;2023-02-03T00:44:36;100866.82;;;-0.83;81.23
50484;BME280;36409;52.168;20.878;2023-02-03T00:47:06;100863.27;;;-0.87;81.08
50484;BME280;36409;52.168;20.878;2023-02-03T00:50:06;100866.59;;;-0.89;80.51
50484;BME280;36409;52.168;20.878;2023-02-03T00:52:36;100874.28;;;-0.89;80.76
50484;BME280;36409;52.168;20.878;2023-02-03T00:55:07;100873.47;;;-0.88;81.55
50484;BME280;36409;52.168;20.878;2023-02-03T00:57:36;100874.33;;;-0.88;80.92
50484;BME280;36409;52.168;20.878;2023-02-03T01:00:08;100869.20;;;-0.88;80.84
50484;BME280;36409;52.168;20.878;2023-02-03T01:02:37;100867.53;;;-0.87;80.87
50484;BME280;36409;52.168;20.878;2023-02-03T01:05:09;100871.84;;;-0.86;81.53
50484;BME280;36409;52.168;20.878;2023-02-03T01:07:38;100871.89;;;-0.85;81.13
50484;BME280;36409;52.168;20.878;2023-02-03T01:10:09;100870.27;;;-0.83;80.54
50484;BME280;36409;52.168;20.878;2023-02-03T01:12:38;100867.77;;;-0.81;80.73
50484;BME280;36409;52.168;20.878;2023-02-03T01:15:09;100872.97;;;-0.80;81.42
50484;BME280;36409;52.168;20.878;2023-02-03T01:17:41;100879.01;;;-0.78;81.23
50484;BME280;36409;52.168;20.878;2023-02-03T01:20:12;100880.77;;;-0.76;80.98
50484;BME280;36409;52.168;20.878;2023-02-03T01:22:43;100880.77;;;-0.76;80.86
50484;BME280;36409;52.168;20.878;2023-02-03T01:25:13;100874.02;;;-0.74;80.88
50484;BME280;36409;52.168;20.878;2023-02-03T01:27:42;100873.20;;;-0.73;81.43
50484;BME280;36409;52.168;20.878;2023-02-03T01:30:12;100870.64;;;-0.73;81.17
50484;BME280;36409;52.168;20.878;2023-02-03T01:32:42;100872.39;;;-0.72;80.64
50484;BME280;36409;52.168;20.878;2023-02-03T01:35:11;100873.20;;;-0.73;80.88
50484;BME280;36409;52.168;20.878;2023-02-03T01:37:41;100876.63;;;-0.73;81.55
50484;BME280;36409;52.168;20.878;2023-02-03T01:40:12;100873.25;;;-0.72;80.47
50484;BME280;36409;52.168;20.878;2023-02-03T01:42:43;100877.52;;;-0.72;80.95
50484;BME280;36409;52.168;20.878;2023-02-03T01:45:12;100869.83;;;-0.72;80.55
50484;BME280;36409;52.168;20.878;2023-02-03T01:47:47;100859.57;;;-0.72;80.87
50484;BME280;36409;52.168;20.878;2023-02-03T01:50:21;100861.24;;;-0.73;80.86
50484;BME280;36409;52.168;20.878;2023-02-03T01:52:53;100862.14;;;-0.72;81.17
50484;BME280;36409;52.168;20.878;2023-02-03T01:55:27;100855.25;;;-0.73;81.66
50484;BME280;36409;52.168;20.878;2023-02-03T01:58:02;100856.88;;;-0.75;81.33
50484;BME280;36409;52.168;20.878;2023-02-03T02:00:33;100863.70;;;-0.76;81.32
50484;BME280;36409;52.168;20.878;2023-02-03T02:03:04;100859.39;;;-0.77;81.15
50484;BME280;36409;52.168;20.878;2023-02-03T02:05:37;100869.64;;;-0.77;80.78
50484;BME280;36409;52.168;20.878;2023-02-03T02:08:09;100861.95;;;-0.77;81.09
50484;BME280;36409;52.168;20.878;2023-02-03T02:10:39;100849.05;;;-0.79;81.19
50484;BME280;36409;52.168;20.878;2023-02-03T02:13:09;100851.57;;;-0.80;80.78
50484;BME280;36409;52.168;20.878;2023-02-03T02:15:46;100849.81;;;-0.81;80.72
50484;BME280;36409;52.168;20.878;2023-02-03T02:18:25;100851.39;;;-0.85;80.41
50484;BME280;36409;52.168;20.878;2023-02-03T02:21:21;100850.53;;;-0.85;80.79
50484;BME280;36409;52.168;20.878;2023-02-03T02:24:33;100841.90;;;-0.87;80.73
50484;BME280;36409;52.168;20.878;2023-02-03T02:27:07;100844.33;;;-0.90;81.26
50484;BME280;36409;52.168;20.878;2023-02-03T02:32:57;100850.22;;;-0.93;80.47
50484;BME280;36409;52.168;20.878;2023-02-03T02:35:41;100844.15;;;-0.95;80.70
50484;BME280;36409;52.168;20.878;2023-02-03T02:38:22;100833.89;;;-0.95;81.09
50484;BME280;36409;52.168;20.878;2023-02-03T02:40:58;100828.63;;;-0.98;80.57
50484;BME280;36409;52.168;20.878;2023-02-03T02:43:37;100831.15;;;-1.00;80.56
50484;BME280;36409;52.168;20.878;2023-02-03T02:46:11;100819.91;;;-1.03;80.46
50484;BME280;36409;52.168;20.878;2023-02-03T02:48:47;100821.47;;;-1.07;80.86
50484;BME280;36409;52.168;20.878;2023-02-03T02:51:20;100825.58;;;-1.11;80.17
50484;BME280;36409;52.168;20.878;2023-02-03T02:53:55;100828.89;;;-1.13;80.25
50484;BME280;36409;52.168;20.878;2023-02-03T02:56:27;100823.59;;;-1.18;80.44
50484;BME280;36409;52.168;20.878;2023-02-03T02:59:00;100823.34;;;-1.24;80.65
50484;BME280;36409;52.168;20.878;2023-02-03T03:01:30;100818.09;;;-1.27;80.40
50484;BME280;36409;52.168;20.878;2023-02-03T03:04:03;100829.91;;;-1.31;80.75
50484;BME280;36409;52.168;20.878;2023-02-03T03:06:37;100829.72;;;-1.35;80.17
50484;BME280;36409;52.168;20.878;2023-02-03T03:09:11;100830.39;;;-1.40;80.31
50484;BME280;36409;52.168;20.878;2023-02-03T03:11:47;100824.19;;;-1.45;80.40
50484;BME280;36409;52.168;20.878;2023-02-03T03:14:19;100825.74;;;-1.48;80.32
50484;BME280;36409;52.168;20.878;2023-02-03T03:16:55;100830.73;;;-1.51;80.47
50484;BME280;36409;52.168;20.878;2023-02-03T03:19:30;100831.48;;;-1.54;80.76
50484;BME280;36409;52.168;20.878;2023-02-03T03:22:02;100837.30;;;-1.58;80.93
50484;BME280;36409;52.168;20.878;2023-02-03T03:24:36;100834.52;;;-1.63;80.89
50484;BME280;36409;52.168;20.878;2023-02-03T03:27:13;100835.22;;;-1.67;80.30
50484;BME280;36409;52.168;20.878;2023-02-03T03:29:47;100833.41;;;-1.69;79.99
50484;BME280;36409;52.168;20.878;2023-02-03T03:32:19;100815.34;;;-1.73;80.60
50484;BME280;36409;52.168;20.878;2023-02-03T03:34:48;100822.08;;;-1.75;80.89
50484;BME280;36409;52.168;20.878;2023-02-03T03:37:21;100826.20;;;-1.78;80.72
50484;BME280;36409;52.168;20.878;2023-02-03T03:39:55;100813.26;;;-1.81;80.02
50484;BME280;36409;52.168;20.878;2023-02-03T03:42:28;100813.12;;;-1.84;80.19
50484;BME280;36409;52.168;20.878;2023-02-03T03:45:04;100818.04;;;-1.89;80.07
50484;BME280;36409;52.168;20.878;2023-02-03T03:47:38;100813.67;;;-1.92;80.81
50484;BME280;36409;52.168;20.878;2023-02-03T03:50:13;100812.72;;;-1.94;80.48
50484;BME280;36409;52.168;20.878;2023-02-03T03:52:47;100817.70;;;-1.97;80.01
50484;BME280;36409;52.168;20.878;2023-02-03T03:55:19;100818.45;;;-1.99;80.81
50484;BME280;36409;52.168;20.878;2023-02-03T03:57:55;100820.95;;;-2.01;80.64
50484;BME280;36409;52.168;20.878;2023-02-03T04:00:28;100819.14;;;-2.04;80.82
50484;BME280;36409;52.168;20.878;2023-02-03T04:03:02;100819.94;;;-2.05;80.93
50484;BME280;36409;52.168;20.878;2023-02-03T04:05:35;100823.16;;;-2.09;80.38
50484;BME280;36409;52.168;20.878;2023-02-03T04:08:07;100822.21;;;-2.11;80.64
50484;BME280;36409;52.168;20.878;2023-02-03T04:10:37;100812.73;;;-2.13;80.47
50484;BME280;36409;52.168;20.878;2023-02-03T04:13:11;100817.78;;;-2.15;80.12
50484;BME280;36409;52.168;20.878;2023-02-03T04:15:40;100817.70;;;-2.17;80.24
50484;BME280;36409;52.168;20.878;2023-02-03T04:18:12;100820.14;;;-2.20;80.30
50484;BME280;36409;52.168;20.878;2023-02-03T04:20:41;100820.95;;;-2.21;80.54
50484;BME280;36409;52.168;20.878;2023-02-03T04:23:11;100815.69;;;-2.24;80.90
50484;BME280;36409;52.168;20.878;2023-02-03T04:25:40;100826.66;;;-2.26;80.52
50484;BME280;36409;52.168;20.878;2023-02-03T04:28:09;100821.40;;;-2.29;80.70
50484;BME280;36409;52.168;20.878;2023-02-03T04:30:38;100822.95;;;-2.33;80.40
50484;BME280;36409;52.168;20.878;2023-02-03T04:33:07;100822.80;;;-2.36;80.44
50484;BME280;36409;52.168;20.878;2023-02-03T04:35:36;100825.30;;;-2.38;80.10
50484;BME280;36409;52.168;20.878;2023-02-03T04:38:07;100821.70;;;-2.41;80.81
50484;BME280;36409;52.168;20.878;2023-02-03T04:40:37;100827.64;;;-2.42;80.19
50484;BME280;36409;52.168;20.878;2023-02-03T04:43:06;100819.89;;;-2.44;80.77
50484;BME280;36409;52.168;20.878;2023-02-03T04:45:37;100820.69;;;-2.45;80.61
50484;BME280;36409;52.168;20.878;2023-02-03T04:48:08;100812.06;;;-2.47;80.45
50484;BME280;36409;52.168;20.878;2023-02-03T04:50:37;100810.40;;;-2.46;80.31
50484;BME280;36409;52.168;20.878;2023-02-03T04:53:06;100809.51;;;-2.47;80.19
50484;BME280;36409;52.168;20.878;2023-02-03T04:55:38;100802.67;;;-2.48;80.60
50484;BME280;36409;52.168;20.878;2023-02-03T04:58:08;100809.51;;;-2.47;80.57
50484;BME280;36409;52.168;20.878;2023-02-03T05:00:38;100806.09;;;-2.47;80.70
50484;BME280;36409;52.168;20.878;2023-02-03T05:03:07;100795.00;;;-2.48;80.67
50484;BME280;36409;52.168;20.878;2023-02-03T05:05:36;100790.75;;;-2.47;80.49
50484;BME280;36409;52.168;20.878;2023-02-03T05:08:06;100784.77;;;-2.48;80.56
50484;BME280;36409;52.168;20.878;2023-02-03T05:10:35;100777.10;;;-2.48;80.62
50484;BME280;36409;52.168;20.878;2023-02-03T05:13:07;100778.77;;;-2.49;80.64
50484;BME280;36409;52.168;20.878;2023-02-03T05:15:38;100779.57;;;-2.50;80.37
50484;BME280;36409;52.168;20.878;2023-02-03T05:18:07;100776.16;;;-2.50;80.75
50484;BME280;36409;52.168;20.878;2023-02-03T05:20:37;100780.46;;;-2.49;80.51
50484;BME280;36409;52.168;20.878;2023-02-03T05:23:06;100779.57;;;-2.50;80.49
50484;BME280;36409;52.168;20.878;2023-02-03T05:25:35;100777.81;;;-2.51;80.51
50484;BME280;36409;52.168;20.878;2023-02-03T05:28:06;100776.06;;;-2.52;80.80
50484;BME280;36409;52.168;20.878;2023-02-03T05:30:35;100779.52;;;-2.51;80.48
50484;BME280;36409;52.168;20.878;2023-02-03T05:33:05;100776.86;;;-2.53;80.58
50484;BME280;36409;52.168;20.878;2023-02-03T05:35:35;100785.43;;;-2.52;81.11
50484;BME280;36409;52.168;20.878;2023-02-03T05:38:06;100772.64;;;-2.52;80.89
50484;BME280;36409;52.168;20.878;2023-02-03T05:40:36;100772.64;;;-2.52;81.00
50484;BME280;36409;52.168;20.878;2023-02-03T05:43:24;100774.31;;;-2.53;80.85
50484;BME280;36409;52.168;20.878;2023-02-03T05:45:53;100766.64;;;-2.53;80.77
50484;BME280;36409;52.168;20.878;2023-02-03T05:48:22;100763.22;;;-2.53;80.67
50484;BME280;36409;52.168;20.878;2023-02-03T05:50:52;100759.80;;;-2.54;80.51
50484;BME280;36409;52.168;20.878;2023-02-03T05:53:22;100762.36;;;-2.54;80.47
50484;BME280;36409;52.168;20.878;2023-02-03T05:55:51;100762.27;;;-2.55;80.75
50484;BME280;36409;52.168;20.878;2023-02-03T05:58:20;100764.83;;;-2.55;80.76
50484;BME280;36409;52.168;20.878;2023-02-03T06:00:50;100763.08;;;-2.56;80.99
50484;BME280;36409;52.168;20.878;2023-02-03T06:03:19;100766.52;;;-2.56;80.77
50484;BME280;36409;52.168;20.878;2023-02-03T06:05:49;100761.41;;;-2.56;80.95
50484;BME280;36409;52.168;20.878;2023-02-03T06:08:18;100763.97;;;-2.56;80.51
50484;BME280;36409;52.168;20.878;2023-02-03T06:10:47;100755.41;;;-2.56;81.18
50484;BME280;36409;52.168;20.878;2023-02-03T06:13:17;100759.72;;;-2.55;80.71
50484;BME280;36409;52.168;20.878;2023-02-03T06:15:46;100755.41;;;-2.56;80.46
50484;BME280;36409;52.168;20.878;2023-02-03T06:18:15;100753.00;;;-2.53;80.81
50484;BME280;36409;52.168;20.878;2023-02-03T06:20:45;100746.93;;;-2.55;80.47
50484;BME280;36409;52.168;20.878;2023-02-03T06:23:14;100744.38;;;-2.55;81.11
50484;BME280;36409;52.168;20.878;2023-02-03T06:25:47;100741.02;;;-2.54;80.53
50484;BME280;36409;52.168;20.878;2023-02-03T06:28:16;100741.02;;;-2.54;80.54
50484;BME280;36409;52.168;20.878;2023-02-03T06:30:49;100733.34;;;-2.54;80.75
50484;BME280;36409;52.168;20.878;2023-02-03T06:33:19;100731.69;;;-2.54;80.76
50484;BME280;36409;52.168;20.878;2023-02-03T06:35:48;100733.41;;;-2.53;80.96
50484;BME280;36409;52.168;20.878;2023-02-03T06:38:17;100730.05;;;-2.52;80.87
50484;BME280;36409;52.168;20.878;2023-02-03T06:40:47;100719.91;;;-2.50;81.17
50484;BME280;36409;52.168;20.878;2023-02-03T06:43:16;100724.27;;;-2.47;80.84
50484;BME280;36409;52.168;20.878;2023-02-03T06:45:46;100726.08;;;-2.45;81.14
50484;BME280;36409;52.168;20.878;2023-02-03T06:48:15;100706.62;;;-2.41;80.71
50484;BME280;36409;52.168;20.878;2023-02-03T06:50:45;100703.47;;;-2.36;81.17
50484;BME280;36409;52.168;20.878;2023-02-03T06:53:16;100704.55;;;-2.30;80.87
50484;BME280;36409;52.168;20.878;2023-02-03T06:55:46;100694.58;;;-2.24;81.12
50484;BME280;36409;52.168;20.878;2023-02-03T06:58:15;100690.69;;;-2.16;80.91
50484;BME280;36409;52.168;20.878;2023-02-03T07:00:44;100678.19;;;-2.08;81.34
50484;BME280;36409;52.168;20.878;2023-02-03T07:03:14;100682.83;;;-1.99;81.23
50484;BME280;36409;52.168;20.878;2023-02-03T07:05:43;100670.31;;;-1.93;80.50
50484;BME280;36409;52.168;20.878;2023-02-03T07:08:12;100667.98;;;-1.87;81.31
50484;BME280;36409;52.168;20.878;2023-02-03T07:10:41;100665.61;;;-1.82;81.05
50484;BME280;36409;52.168;20.878;2023-02-03T07:13:10;100663.24;;;-1.78;80.93
50484;BME280;36409;52.168;20.878;2023-02-03T07:15:40;100651.44;;;-1.74;80.93
50484;BME280;36409;52.168;20.878;2023-02-03T07:18:09;100649.00;;;-1.71;80.69
50484;BME280;36409;52.168;20.878;2023-02-03T07:20:40;100645.69;;;-1.68;80.51
50484;BME280;36409;52.168;20.878;2023-02-03T07:23:09;100640.65;;;-1.67;81.02
50484;BME280;36409;52.168;20.878;2023-02-03T07:25:39;100637.37;;;-1.63;81.45
50484;BME280;36409;52.168;20.878;2023-02-03T07:28:08;100641.01;;;-1.58;80.89
50484;BME280;36409;52.168;20.878;2023-02-03T07:30:37;100643.80;;;-1.51;81.44
50484;BME280;36409;52.168;20.878;2023-02-03T07:33:07;100638.04;;;-1.46;80.59
50484;BME280;36409;52.168;20.878;2023-02-03T07:35:36;100633.22;;;-1.38;80.52
50484;BME280;36409;52.168;20.878;2023-02-03T07:38:05;100635.23;;;-1.31;80.96
50484;BME280;36409;52.168;20.878;2023-02-03T07:40:35;100622.69;;;-1.23;81.16
50484;BME280;36409;52.168;20.878;2023-02-03T07:43:05;100618.75;;;-1.15;80.85
50484;BME280;36409;52.168;20.878;2023-02-03T07:45:34;100607.89;;;-1.07;80.74
50484;BME280;36409;52.168;20.878;2023-02-03T07:48:04;100605.63;;;-1.00;81.12
50484;BME280;36409;52.168;20.878;2023-02-03T07:50:33;100590.53;;;-0.92;81.43
50484;BME280;36409;52.168;20.878;2023-02-03T07:53:03;100589.06;;;-0.85;80.95
50484;BME280;36409;52.168;20.878;2023-02-03T07:55:33;100590.20;;;-0.77;80.89
50484;BME280;36409;52.168;20.878;2023-02-03T07:58:02;100581.85;;;-0.71;81.26
50484;BME280;36409;52.168;20.878;2023-02-03T08:00:32;100583.88;;;-0.63;81.29
50484;BME280;36409;52.168;20.878;2023-02-03T08:03:01;100577.23;;;-0.56;80.29
50484;BME280;36409;52.168;20.878;2023-02-03T08:05:32;100575.83;;;-0.48;81.13
50484;BME280;36409;52.168;20.878;2023-02-03T08:08:01;100570.07;;;-0.40;80.29
50484;BME280;36409;52.168;20.878;2023-02-03T08:10:31;100567.77;;;-0.33;80.39
50484;BME280;36409;52.168;20.878;2023-02-03T08:13:00;100561.94;;;-0.28;80.77
50484;BME280;36409;52.168;20.878;2023-02-03T08:15:30;100554.31;;;-0.25;80.23
50484;BME280;36409;52.168;20.878;2023-02-03T08:17:59;100551.15;;;-0.18;80.22
50484;BME280;36409;52.168;20.878;2023-02-03T08:20:30;100541.88;;;-0.13;80.85
50484;BME280;36409;52.168;20.878;2023-02-03T08:23:00;100546.45;;;-0.04;80.53
50484;BME280;36409;52.168;20.878;2023-02-03T08:25:30;100546.63;;;0.02;80.66
50484;BME280;36409;52.168;20.878;2023-02-03T08:27:59;100552.94;;;0.12;79.96
50484;BME280;36409;52.168;20.878;2023-02-03T08:30:31;100546.33;;;0.20;80.63
50484;BME280;36409;52.168;20.878;2023-02-03T08:33:01;100543.16;;;0.27;80.68
50484;BME280;36409;52.168;20.878;2023-02-03T08:35:30;100534.08;;;0.39;80.04
50484;BME280;36409;52.168;20.878;2023-02-03T08:38:00;100520.80;;;0.54;80.42
50484;BME280;36409;52.168;20.878;2023-02-03T08:40:31;100518.53;;;0.65;79.81
50484;BME280;36409;52.168;20.878;2023-02-03T08:43:00;100515.39;;;0.75;79.29
50484;BME280;36409;52.168;20.878;2023-02-03T08:45:31;100516.44;;;0.82;80.15
50484;BME280;36409;52.168;20.878;2023-02-03T08:48:00;100509.73;;;0.87;80.12
50484;BME280;36409;52.168;20.878;2023-02-03T08:50:30;100510.02;;;0.98;79.21
50484;BME280;36409;52.168;20.878;2023-02-03T08:53:00;100507.66;;;1.05;79.94
50484;BME280;36409;52.168;20.878;2023-02-03T08:55:31;100502.64;;;1.10;79.24
50484;BME280;36409;52.168;20.878;2023-02-03T08:58:00;100489.84;;;1.12;79.23
50484;BME280;36409;52.168;20.878;2023-02-03T09:00:30;100491.76;;;1.20;79.51
50484;BME280;36409;52.168;20.878;2023-02-03T09:03:01;100481.05;;;1.37;78.52
50484;BME280;36409;52.168;20.878;2023-02-03T09:05:32;100478.03;;;1.90;78.37
50484;BME280;36409;52.168;20.878;2023-02-03T09:08:02;100473.48;;;2.18;77.81
50484;BME280;36409;52.168;20.878;2023-02-03T09:10:32;100463.72;;;2.03;78.42
50484;BME280;36409;52.168;20.878;2023-02-03T09:13:02;100467.00;;;1.96;78.97
50484;BME280;36409;52.168;20.878;2023-02-03T09:15:33;100463.46;;;1.92;79.18
50484;BME280;36409;52.168;20.878;2023-02-03T09:18:02;100462.51;;;1.87;79.13
50484;BME280;36409;52.168;20.878;2023-02-03T09:20:31;100460.66;;;1.81;78.20
50484;BME280;36409;52.168;20.878;2023-02-03T09:23:01;100457.20;;;1.81;78.68
50484;BME280;36409;52.168;20.878;2023-02-03T09:25:31;100445.95;;;1.76;78.49
50484;BME280;36409;52.168;20.878;2023-02-03T09:28:02;100440.17;;;1.86;78.01
50484;BME280;36409;52.168;20.878;2023-02-03T09:30:32;100431.69;;;1.90;78.09
50484;BME280;36409;52.168;20.878;2023-02-03T09:33:03;100416.27;;;1.92;78.66
50484;BME280;36409;52.168;20.878;2023-02-03T09:35:33;100407.61;;;1.88;78.16
50484;BME280;36409;52.168;20.878;2023-02-03T09:38:02;100400.72;;;1.87;78.65
50484;BME280;36409;52.168;20.878;2023-02-03T09:40:34;100408.42;;;1.85;77.80
50484;BME280;36409;52.168;20.878;2023-02-03T09:43:14;100395.50;;;1.84;77.64
50484;BME280;36409;52.168;20.878;2023-02-03T09:45:51;100383.53;;;1.86;78.23
50484;BME280;36409;52.168;20.878;2023-02-03T09:48:21;100391.18;;;1.83;77.59
50484;BME280;36409;52.168;20.878;2023-02-03T09:50:53;100374.91;;;1.84;77.27
50484;BME280;36409;52.168;20.878;2023-02-03T09:53:27;100374.88;;;1.82;78.00
50484;BME280;36409;52.168;20.878;2023-02-03T09:55:59;100361.91;;;1.78;77.30
50484;BME280;36409;52.168;20.878;2023-02-03T09:58:32;100350.88;;;1.83;77.87
50484;BME280;36409;52.168;20.878;2023-02-03T10:01:03;100340.75;;;1.91;77.77
50484;BME280;36409;52.168;20.878;2023-02-03T10:03:43;100336.31;;;2.28;76.91
50484;BME280;36409;52.168;20.878;2023-02-03T10:06:22;100333.33;;;3.03;75.38
50484;BME280;36409;52.168;20.878;2023-02-03T10:09:08;100329.20;;;3.75;74.32
50484;BME280;36409;52.168;20.878;2023-02-03T10:11:54;100312.84;;;4.51;73.76
50484;BME280;36409;52.168;20.878;2023-02-03T10:14:40;100306.20;;;4.81;73.56
50484;BME280;36409;52.168;20.878;2023-02-03T10:17:27;100307.05;;;4.80;73.38
50484;BME280;36409;52.168;20.878;2023-02-03T10:20:03;100291.42;;;4.66;74.01
50484;BME280;36409;52.168;20.878;2023-02-03T10:22:37;100287.44;;;5.08;72.39
50484;BME280;36409;52.168;20.878;2023-02-03T10:25:18;100278.00;;;5.12;72.39
50484;BME280;36409;52.168;20.878;2023-02-03T10:27:55;100276.80;;;4.68;72.98
50484;BME280;36409;52.168;20.878;2023-02-03T10:30:30;100271.19;;;4.20;73.42
50484;BME280;36409;52.168;20.878;2023-02-03T10:33:11;100269.12;;;3.90;73.74
50484;BME280;36409;52.168;20.878;2023-02-03T10:35:48;100267.14;;;3.68;73.99
50484;BME280;36409;52.168;20.878;2023-02-03T10:38:28;100256.31;;;3.99;73.19
50484;BME280;36409;52.168;20.878;2023-02-03T10:41:02;100240.14;;;4.17;73.01
50484;BME280;36409;52.168;20.878;2023-02-03T10:43:32;100233.14;;;4.05;73.28
50484;BME280;36409;52.168;20.878;2023-02-03T10:46:20;100217.56;;;3.97;72.95
50484;BME280;36409;52.168;20.878;2023-02-03T10:48:52;100215.56;;;3.73;72.92
50484;BME280;36409;52.168;20.878;2023-02-03T10:51:24;100206.55;;;3.37;73.46
50484;BME280;36409;52.168;20.878;2023-02-03T10:53:53;100198.38;;;3.04;73.49
50484;BME280;36409;52.168;20.878;2023-02-03T10:56:25;100200.47;;;2.72;74.08
50484;BME280;36409;52.168;20.878;2023-02-03T10:58:58;100186.34;;;2.46;74.06
50484;BME280;36409;52.168;20.878;2023-02-03T11:01:39;100181.75;;;2.28;73.74
50484;BME280;36409;52.168;20.878;2023-02-03T11:04:27;100162.59;;;2.11;73.87
50484;BME280;36409;52.168;20.878;2023-02-03T11:07:00;100141.77;;;1.97;74.62
50484;BME280;36409;52.168;20.878;2023-02-03T11:09:34;100138.08;;;1.84;74.79
50484;BME280;36409;52.168;20.878;2023-02-03T11:12:09;100123.34;;;1.75;74.96
50484;BME280;36409;52.168;20.878;2023-02-03T11:14:41;100113.77;;;1.66;74.88
50484;BME280;36409;52.168;20.878;2023-02-03T11:17:17;100101.61;;;1.59;74.99
50484;BME280;36409;52.168;20.878;2023-02-03T11:19:48;100093.71;;;1.48;74.00
50484;BME280;36409;52.168;20.878;2023-02-03T11:22:29;100087.56;;;1.40;74.00
50484;BME280;36409;52.168;20.878;2023-02-03T11:25:01;100076.30;;;1.33;74.13
50484;BME280;36409;52.168;20.878;2023-02-03T11:27:35;100068.44;;;1.27;74.47
50484;BME280;36409;52.168;20.878;2023-02-03T11:30:13;100061.56;;;1.26;74.59
50484;BME280;36409;52.168;20.878;2023-02-03T11:32:45;100058.99;;;1.26;75.15
50484;BME280;36409;52.168;20.878;2023-02-03T11:35:17;100050.44;;;1.27;74.57
50484;BME280;36409;52.168;20.878;2023-02-03T11:37:50;100041.05;;;1.29;74.46
50484;BME280;36409;52.168;20.878;2023-02-03T11:40:29;100035.09;;;1.32;74.62
50484;BME280;36409;52.168;20.878;2023-02-03T11:43:04;100019.73;;;1.35;74.66
50484;BME280;36409;52.168;20.878;2023-02-03T11:45:38;100015.44;;;1.35;74.65
50484;BME280;36409;52.168;20.878;2023-02-03T11:48:23;100009.50;;;1.38;74.12
50484;BME280;36409;52.168;20.878;2023-02-03T11:51:07;100006.09;;;1.39;75.17
50484;BME280;36409;52.168;20.878;2023-02-03T11:53:58;99996.64;;;1.38;74.11
50484;BME280;36409;52.168;20.878;2023-02-03T11:56:44;99988.10;;;1.41;74.09
50484;BME280;36409;52.168;20.878;2023-02-03T11:59:41;99984.68;;;1.40;73.87
50484;BME280;36409;52.168;20.878;2023-02-03T12:02:40;99977.81;;;1.41;73.83
50484;BME280;36409;52.168;20.878;2023-02-03T12:05:38;99979.48;;;1.38;73.89
50484;BME280;36409;52.168;20.878;2023-02-03T12:08:22;99973.49;;;1.38;73.81
50484;BME280;36409;52.168;20.878;2023-02-03T12:11:07;99970.86;;;1.35;74.19
50484;BME280;36409;52.168;20.878;2023-02-03T12:13:52;99966.48;;;1.29;73.70
50484;BME280;36409;52.168;20.878;2023-02-03T12:16:44;99946.68;;;1.25;73.66
50484;BME280;36409;52.168;20.878;2023-02-03T12:19:22;99949.17;;;1.20;73.59
50484;BME280;36409;52.168;20.878;2023-02-03T12:22:03;99943.10;;;1.15;74.14
50484;BME280;36409;52.168;20.878;2023-02-03T12:24:46;99941.30;;;1.10;73.79
50484;BME280;36409;52.168;20.878;2023-02-03T12:27:32;99930.95;;;1.06;73.93
50484;BME280;36409;52.168;20.878;2023-02-03T12:30:09;99929.21;;;1.05;74.47
50484;BME280;36409;52.168;20.878;2023-02-03T12:32:45;99924.89;;;1.03;73.62
50484;BME280;36409;52.168;20.878;2023-02-03T12:35:22;99911.91;;;0.97;73.67
50484;BME280;36409;52.168;20.878;2023-02-03T12:37:57;99905.02;;;0.94;73.80
50484;BME280;36409;52.168;20.878;2023-02-03T12:40:35;99900.70;;;0.91;73.55
50484;BME280;36409;52.168;20.878;2023-02-03T12:43:18;99892.98;;;0.90;73.63
50484;BME280;36409;52.168;20.878;2023-02-03T12:45:53;99880.98;;;0.90;74.58
50484;BME280;36409;52.168;20.878;2023-02-03T12:48:25;99862.92;;;0.87;73.90
50484;BME280;36409;52.168;20.878;2023-02-03T12:51:01;99852.62;;;0.84;74.26
50484;BME280;36409;52.168;20.878;2023-02-03T12:53:35;99839.72;;;0.83;73.71
50484;BME280;36409;52.168;20.878;2023-02-03T12:56:08;99831.92;;;0.76;74.43
50484;BME280;36409;52.168;20.878;2023-02-03T12:58:43;99819.79;;;0.69;74.38
50484;BME280;36409;52.168;20.878;2023-02-03T13:01:19;99813.66;;;0.61;73.85
50484;BME280;36409;52.168;20.878;2023-02-03T13:03:54;99794.69;;;0.53;74.35
50484;BME280;36409;52.168;20.878;2023-02-03T13:06:31;99795.39;;;0.44;74.33
50484;BME280;36409;52.168;20.878;2023-02-03T13:09:12;99778.98;;;0.36;73.49
50484;BME280;36409;52.168;20.878;2023-02-03T13:11:53;99780.64;;;0.32;74.08
50484;BME280;36409;52.168;20.878;2023-02-03T13:14:30;99773.69;;;0.26;73.51
50484;BME280;36409;52.168;20.878;2023-02-03T13:17:07;99769.32;;;0.22;73.59
50484;BME280;36409;52.168;20.878;2023-02-03T13:19:43;99757.22;;;0.15;73.72
50484;BME280;36409;52.168;20.878;2023-02-03T13:22:14;99742.53;;;0.08;74.13